createdAt,value
2022-10-11T00:02:16.817Z,3.30
2022-10-11T00:04:43.613Z,2.75
2022-10-11T00:07:10.737Z,3.20
2022-10-11T00:09:37.509Z,2.90
2022-10-11T00:12:04.414Z,2.80
2022-10-11T00:14:34.021Z,2.78
2022-10-11T00:17:01.851Z,2.73
2022-10-11T00:19:28.588Z,2.55
2022-10-11T00:21:55.320Z,2.63
2022-10-11T00:24:22.069Z,2.88
2022-10-11T00:26:51.464Z,2.83
2022-10-11T00:29:18.100Z,2.70
2022-10-11T00:31:44.889Z,3.05
2022-10-11T00:34:12.414Z,2.97
2022-10-11T00:36:39.150Z,2.92
2022-10-11T00:39:06.114Z,2.95
2022-10-11T00:41:33.069Z,2.67
2022-10-11T00:44:32.840Z,2.80
2022-10-11T00:47:03.795Z,2.97
2022-10-11T00:49:44.178Z,2.60
2022-10-11T00:52:44.549Z,2.60
2022-10-11T00:55:17.844Z,2.65
2022-10-11T00:57:48.350Z,2.90
2022-10-11T01:02:43.125Z,2.40
2022-10-11T01:05:28.730Z,2.40
2022-10-11T01:07:57.492Z,2.53
2022-10-11T01:10:24.295Z,2.88
2022-10-11T01:13:06.004Z,2.78
2022-10-11T01:15:52.297Z,2.40
2022-10-11T01:18:34.207Z,2.50
2022-10-11T01:21:09.721Z,2.97
2022-10-11T01:24:24.180Z,2.85
2022-10-11T01:27:25.489Z,2.90
2022-10-11T01:30:13.755Z,2.60
2022-10-11T01:33:18.362Z,2.58
2022-10-11T01:36:04.110Z,2.72
2022-10-11T01:38:47.806Z,2.33
2022-10-11T01:41:17.951Z,2.30
2022-10-11T01:43:45.758Z,2.60
2022-10-11T01:46:13.579Z,2.67
2022-10-11T01:48:54.547Z,2.60
2022-10-11T01:51:31.597Z,2.80
2022-10-11T01:54:56.953Z,2.50
2022-10-11T01:57:54.111Z,2.65
2022-10-11T02:00:24.611Z,2.38
2022-10-11T02:05:30.436Z,2.65
2022-10-11T02:08:04.676Z,2.40
2022-10-11T02:10:40.283Z,2.80
2022-10-11T02:13:14.361Z,2.90
2022-10-11T02:15:43.065Z,2.35
2022-10-11T02:18:15.993Z,2.83
2022-10-11T02:20:45.360Z,2.22
2022-10-11T02:23:42.485Z,2.28
2022-10-11T02:26:11.639Z,2.53
2022-10-11T02:28:41.614Z,2.05
2022-10-11T02:31:11.354Z,2.22
2022-10-11T02:33:42.839Z,2.00
2022-10-11T02:36:30.152Z,2.28
2022-10-11T02:39:05.350Z,1.90
2022-10-11T02:41:37.413Z,2.28
2022-10-11T02:44:19.835Z,2.00
2022-10-11T02:46:48.129Z,2.05
2022-10-11T02:49:16.466Z,2.38
2022-10-11T02:51:43.349Z,2.45
2022-10-11T02:54:10.153Z,2.70
2022-10-11T02:56:53.930Z,2.78
2022-10-11T02:59:20.669Z,2.30
2022-10-11T03:01:47.394Z,2.45
2022-10-11T03:04:14.135Z,2.08
2022-10-11T03:06:40.855Z,2.10
2022-10-11T03:09:07.550Z,2.47
2022-10-11T03:11:34.306Z,2.38
2022-10-11T03:14:00.963Z,2.75
2022-10-11T03:16:27.711Z,2.63
2022-10-11T03:18:54.344Z,2.28
2022-10-11T03:21:22.122Z,2.53
2022-10-11T03:23:49.042Z,2.00
2022-10-11T03:26:16.020Z,2.22
2022-10-11T03:28:42.893Z,2.00
2022-10-11T03:31:09.653Z,2.13
2022-10-11T03:33:36.387Z,2.00
2022-10-11T03:36:03.549Z,2.08
2022-10-11T03:38:30.368Z,1.80
2022-10-11T03:40:57.090Z,2.30
2022-10-11T03:43:23.808Z,1.98
2022-10-11T03:45:50.467Z,2.00
2022-10-11T03:48:17.131Z,2.00
2022-10-11T03:50:43.816Z,1.80
2022-10-11T03:53:10.619Z,1.90
2022-10-11T03:55:41.304Z,2.05
2022-10-11T03:58:08.627Z,1.95
2022-10-11T04:00:35.974Z,1.80
2022-10-11T04:03:05.427Z,2.05
2022-10-11T04:05:32.111Z,2.20
2022-10-11T04:07:58.780Z,2.25
2022-10-11T04:10:25.573Z,2.03
2022-10-11T04:12:52.358Z,2.00
2022-10-11T04:15:19.129Z,2.03
2022-10-11T04:17:45.824Z,1.90
2022-10-11T04:20:12.587Z,2.20
2022-10-11T04:22:39.427Z,2.00
2022-10-11T04:25:07.639Z,2.00
2022-10-11T04:27:34.415Z,2.20
2022-10-11T04:30:01.472Z,2.15
2022-10-11T04:32:28.281Z,1.83
2022-10-11T04:34:55.218Z,2.25
2022-10-11T04:37:22.011Z,2.25
2022-10-11T04:39:48.946Z,2.13
2022-10-11T04:42:16.395Z,1.80
2022-10-11T04:44:43.088Z,2.20
2022-10-11T04:47:09.744Z,2.00
2022-10-11T04:49:36.506Z,2.10
2022-10-11T04:52:03.237Z,2.58
2022-10-11T04:54:29.923Z,2.05
2022-10-11T04:56:56.662Z,2.05
2022-10-11T04:59:23.421Z,2.10
2022-10-11T05:01:50.130Z,2.10
2022-10-11T05:04:16.988Z,2.03
2022-10-11T05:06:43.684Z,2.42
2022-10-11T05:09:10.573Z,2.22
2022-10-11T05:11:37.371Z,2.60
2022-10-11T05:14:04.088Z,2.20
2022-10-11T05:16:31.615Z,2.30
2022-10-11T05:18:58.474Z,2.20
2022-10-11T05:21:28.371Z,2.00
2022-10-11T05:23:56.445Z,2.42
2022-10-11T05:26:24.500Z,2.25
2022-10-11T05:28:51.457Z,2.25
2022-10-11T05:31:18.371Z,2.85
2022-10-11T05:33:45.510Z,3.00
2022-10-11T05:36:12.932Z,2.60
2022-10-11T05:38:39.744Z,2.40
2022-10-11T05:41:09.066Z,2.58
2022-10-11T05:43:35.844Z,2.53
2022-10-11T05:46:02.988Z,2.58
2022-10-11T05:48:30.038Z,3.00
2022-10-11T05:51:02.966Z,2.67
2022-10-11T05:53:29.846Z,2.85
2022-10-11T05:55:56.615Z,3.00
2022-10-11T05:58:23.751Z,2.45
2022-10-11T06:00:50.441Z,2.60
2022-10-11T06:03:17.785Z,2.58
2022-10-11T06:05:44.464Z,3.22
2022-10-11T06:08:11.205Z,2.50
2022-10-11T06:10:38.782Z,2.25
2022-10-11T06:13:06.274Z,2.50
2022-10-11T06:15:40.270Z,2.28
2022-10-11T06:18:07.140Z,2.60
2022-10-11T06:20:33.883Z,3.28
2022-10-11T06:23:00.725Z,3.55
2022-10-11T06:25:27.443Z,3.10
2022-10-11T06:27:54.278Z,2.63
2022-10-11T06:30:21.079Z,3.00
2022-10-11T06:32:47.740Z,2.83
2022-10-11T06:35:14.587Z,3.67
2022-10-11T06:37:41.458Z,2.78
2022-10-11T06:40:08.508Z,2.72
2022-10-11T06:42:35.258Z,2.60
2022-10-11T06:45:25.910Z,2.75
2022-10-11T06:48:49.879Z,2.70
2022-10-11T06:51:19.011Z,3.10
2022-10-11T06:53:56.758Z,3.38
2022-10-11T06:56:25.767Z,3.33
2022-10-11T06:58:54.061Z,3.42
2022-10-11T07:01:23.491Z,4.50
2022-10-11T07:03:52.272Z,4.38
2022-10-11T07:06:24.955Z,3.55
2022-10-11T07:08:52.063Z,3.22
2022-10-11T07:11:22.092Z,3.00
2022-10-11T07:13:51.398Z,3.38
2022-10-11T07:16:18.890Z,3.17
2022-10-11T07:18:46.191Z,2.85
2022-10-11T07:21:15.798Z,3.20
2022-10-11T07:23:42.955Z,3.80
2022-10-11T07:26:11.032Z,3.55
2022-10-11T07:28:39.217Z,3.38
2022-10-11T07:31:08.967Z,3.20
2022-10-11T07:33:35.770Z,3.77
2022-10-11T07:36:03.807Z,3.75
2022-10-11T07:38:31.428Z,3.75
2022-10-11T07:40:58.401Z,3.72
2022-10-11T07:43:25.137Z,3.03
2022-10-11T07:45:56.992Z,3.90
2022-10-11T07:48:23.701Z,3.88
2022-10-11T07:50:50.481Z,3.70
2022-10-11T07:53:18.255Z,3.88
2022-10-11T07:55:44.948Z,3.15
2022-10-11T07:58:13.301Z,3.83
2022-10-11T08:00:42.691Z,3.58
2022-10-11T08:03:10.422Z,3.80
2022-10-11T08:05:39.066Z,3.60
2022-10-11T08:08:05.806Z,3.33
2022-10-11T08:10:38.444Z,3.30
2022-10-11T08:13:05.612Z,3.53
2022-10-11T08:15:33.415Z,3.22
2022-10-11T08:18:00.297Z,3.47
2022-10-11T08:20:27.150Z,3.40
2022-10-11T08:22:53.800Z,4.65
2022-10-11T08:25:20.542Z,3.78
2022-10-11T08:27:47.197Z,3.95
2022-10-11T08:30:14.031Z,3.67
2022-10-11T08:32:40.861Z,3.10
2022-10-11T08:35:07.888Z,3.50
2022-10-11T08:37:34.616Z,3.70
2022-10-11T08:40:03.344Z,3.88
2022-10-11T08:42:52.334Z,3.10
2022-10-11T08:45:44.335Z,3.10
2022-10-11T08:48:26.586Z,2.45
2022-10-11T08:50:54.849Z,3.30
2022-10-11T08:53:50.189Z,2.60
2022-10-11T08:56:17.769Z,2.95
2022-10-11T08:58:55.632Z,2.65
2022-10-11T09:01:25.073Z,3.20
2022-10-11T09:03:52.537Z,2.97
2022-10-11T09:06:43.840Z,2.28
2022-10-11T09:09:28.958Z,2.80
2022-10-11T09:12:18.889Z,2.90
2022-10-11T09:15:09.250Z,2.78
2022-10-11T09:18:22.762Z,2.83
2022-10-11T09:21:19.715Z,3.22
2022-10-11T09:23:56.582Z,3.10
2022-10-11T09:26:31.401Z,3.15
2022-10-11T09:29:04.248Z,2.88
2022-10-11T09:31:32.908Z,2.30
2022-10-11T09:34:08.898Z,3.15
2022-10-11T09:36:44.753Z,2.20
2022-10-11T09:39:33.919Z,2.33
2022-10-11T09:42:09.642Z,3.13
2022-10-11T09:44:45.252Z,2.65
2022-10-11T09:47:34.025Z,2.20
2022-10-11T09:50:26.608Z,2.42
2022-10-11T09:52:59.955Z,1.90
2022-10-11T09:55:31.312Z,1.67
2022-10-11T09:57:58.308Z,1.98
2022-10-11T10:00:32.281Z,2.47
2022-10-11T10:03:05.601Z,2.40
2022-10-11T10:05:36.905Z,1.80
2022-10-11T10:08:24.452Z,2.40
2022-10-11T10:11:06.827Z,2.13
2022-10-11T10:13:50.041Z,2.00
2022-10-11T10:16:27.248Z,1.83
2022-10-11T10:19:25.276Z,1.92
2022-10-11T10:21:55.373Z,2.75
2022-10-11T10:24:28.246Z,2.03
2022-10-11T10:27:12.937Z,2.33
2022-10-11T10:29:39.884Z,1.88
2022-10-11T10:32:20.908Z,2.00
2022-10-11T10:35:08.463Z,1.25
2022-10-11T10:37:44.028Z,2.35
2022-10-11T10:40:20.753Z,1.50
2022-10-11T10:42:47.434Z,1.73
2022-10-11T10:45:28.029Z,1.45
2022-10-11T10:50:52.523Z,1.73
2022-10-11T10:53:45.011Z,1.65
2022-10-11T10:56:29.962Z,1.45
2022-10-11T10:59:23.505Z,1.80
2022-10-11T11:02:28.218Z,1.40
2022-10-11T11:05:25.043Z,1.40
2022-10-11T11:08:17.319Z,1.85
2022-10-11T11:10:53.131Z,1.50
2022-10-11T11:13:28.948Z,1.48
2022-10-11T11:16:19.519Z,1.23
2022-10-11T11:22:05.136Z,1.73
2022-10-11T11:24:43.945Z,1.23
2022-10-11T11:27:24.111Z,1.25
2022-10-11T11:30:08.574Z,1.55
2022-10-11T11:32:52.720Z,1.60
2022-10-11T11:35:54.037Z,1.40
2022-10-11T11:38:43.588Z,1.88
2022-10-11T11:41:20.898Z,2.63
2022-10-11T11:44:03.563Z,1.48
2022-10-11T11:46:40.030Z,2.30
2022-10-11T11:49:23.645Z,1.60
2022-10-11T11:52:15.637Z,1.27
2022-10-11T11:55:10.644Z,1.52
2022-10-11T11:58:23.129Z,2.97
2022-10-11T12:01:14.986Z,1.70
2022-10-11T12:03:50.848Z,1.55
2022-10-11T12:06:35.943Z,1.90
2022-10-11T12:09:17.637Z,1.75
2022-10-11T12:12:00.811Z,2.03
2022-10-11T12:14:52.768Z,1.90
2022-10-11T12:17:23.602Z,1.73
2022-10-11T12:20:08.403Z,1.50
2022-10-11T12:22:35.058Z,2.22
2022-10-11T12:25:13.771Z,2.03
2022-10-11T12:27:52.336Z,1.65
2022-10-11T12:30:44.346Z,2.10
2022-10-11T12:33:45.415Z,1.75
2022-10-11T12:36:23.794Z,1.63
2022-10-11T12:39:18.537Z,1.60
2022-10-11T12:42:07.627Z,1.42
2022-10-11T12:45:13.333Z,1.70
2022-10-11T12:48:05.852Z,1.83
2022-10-11T12:50:54.430Z,1.58
2022-10-11T12:53:37.096Z,1.73
2022-10-11T12:56:32.505Z,2.38
2022-10-11T12:59:04.666Z,3.08
2022-10-11T13:01:37.510Z,2.17
2022-10-11T13:04:10.347Z,1.50
2022-10-11T13:06:53.745Z,2.00
2022-10-11T13:09:32.039Z,1.63
2022-10-11T13:12:14.064Z,1.60
2022-10-11T13:14:46.797Z,2.00
2022-10-11T13:17:34.473Z,1.55
2022-10-11T13:22:40.224Z,1.70
2022-10-11T13:25:09.141Z,2.20
2022-10-11T13:27:37.625Z,3.28
2022-10-11T13:30:11.437Z,1.83
2022-10-11T13:32:38.217Z,1.65
2022-10-11T13:35:13.471Z,2.15
2022-10-11T13:37:46.073Z,2.00
2022-10-11T13:40:19.735Z,1.75
2022-10-11T13:42:48.537Z,1.45
2022-10-11T13:45:37.072Z,1.90
2022-10-11T13:48:04.922Z,1.83
2022-10-11T13:50:33.835Z,2.30
2022-10-11T13:53:09.402Z,1.75
2022-10-11T13:55:41.873Z,2.20
2022-10-11T13:58:22.125Z,2.03
2022-10-11T14:00:57.600Z,1.52
2022-10-11T14:03:36.193Z,2.28
2022-10-11T14:06:06.997Z,2.00
2022-10-11T14:08:49.781Z,1.73
2022-10-11T14:11:31.406Z,2.15
2022-10-11T14:13:58.179Z,1.90
2022-10-11T14:16:24.889Z,2.17
2022-10-11T14:19:08.071Z,1.88
2022-10-11T14:21:51.139Z,2.15
2022-10-11T14:24:18.288Z,1.45
2022-10-11T14:26:48.604Z,1.98
2022-10-11T14:29:27.975Z,2.15
2022-10-11T14:32:12.143Z,1.80
2022-10-11T14:34:38.968Z,2.55
2022-10-11T14:37:05.827Z,2.08
2022-10-11T14:39:33.405Z,2.30
2022-10-11T14:42:00.114Z,2.10
2022-10-11T14:44:27.986Z,1.73
2022-10-11T14:46:55.125Z,1.95
2022-10-11T14:49:27.417Z,2.70
2022-10-11T14:51:56.251Z,1.88
2022-10-11T14:54:25.857Z,4.53
2022-10-11T14:57:00.123Z,2.70
2022-10-11T14:59:31.496Z,1.95
2022-10-11T15:01:58.190Z,2.22
2022-10-11T15:04:26.203Z,2.53
2022-10-11T15:06:54.855Z,2.75
2022-10-11T15:09:22.101Z,2.20
2022-10-11T15:11:50.805Z,2.25
2022-10-11T15:14:18.564Z,2.15
2022-10-11T15:16:45.399Z,2.20
2022-10-11T15:19:20.670Z,2.50
2022-10-11T15:21:47.880Z,2.17
2022-10-11T15:24:15.196Z,2.10
2022-10-11T15:26:44.033Z,2.35
2022-10-11T15:29:11.639Z,3.10
2022-10-11T15:31:39.087Z,3.30
2022-10-11T15:34:05.758Z,2.53
2022-10-11T15:36:32.617Z,2.47
2022-10-11T15:38:59.318Z,2.33
2022-10-11T15:41:26.029Z,2.70
2022-10-11T15:43:52.871Z,2.60
2022-10-11T15:46:22.618Z,2.00
2022-10-11T15:48:50.462Z,2.45
2022-10-11T15:51:17.901Z,2.50
2022-10-11T15:53:44.992Z,3.00
2022-10-11T15:56:18.925Z,2.53
2022-10-11T15:58:46.205Z,2.00
2022-10-11T16:01:16.404Z,2.38
2022-10-11T16:03:43.744Z,2.30
2022-10-11T16:06:12.225Z,1.92
2022-10-11T16:08:39.340Z,2.35
2022-10-11T16:11:07.688Z,2.10
2022-10-11T16:13:34.920Z,2.33
2022-10-11T16:16:06.320Z,2.30
2022-10-11T16:18:35.564Z,2.10
2022-10-11T16:21:07.677Z,2.87
2022-10-11T16:23:34.949Z,4.45
2022-10-11T16:26:05.259Z,4.78
2022-10-11T16:31:05.300Z,2.70
2022-10-11T16:33:32.981Z,3.42
2022-10-11T16:36:20.729Z,2.90
2022-10-11T16:38:52.610Z,2.53
2022-10-11T16:41:19.331Z,3.20
2022-10-11T16:43:49.762Z,3.25
2022-10-11T16:48:43.106Z,3.17
2022-10-11T16:51:09.940Z,3.40
2022-10-11T16:53:37.098Z,2.95
2022-10-11T16:56:08.530Z,3.72
2022-10-11T16:58:36.250Z,3.28
2022-10-11T17:01:07.419Z,3.67
2022-10-11T17:03:34.308Z,3.75
2022-10-11T17:06:01.115Z,4.28
2022-10-11T17:08:28.470Z,3.53
2022-10-11T17:10:57.868Z,3.25
2022-10-11T17:13:25.470Z,3.07
2022-10-11T17:15:52.242Z,4.00
2022-10-11T17:18:19.269Z,3.85
2022-10-11T17:20:46.216Z,3.50
2022-10-11T17:23:13.007Z,3.30
2022-10-11T17:25:44.612Z,3.47
2022-10-11T17:28:11.607Z,3.08
2022-10-11T17:30:40.853Z,4.75
2022-10-11T17:33:07.935Z,3.88
2022-10-11T17:35:35.780Z,3.55
2022-10-11T17:38:06.129Z,5.55
2022-10-11T17:40:33.373Z,4.25
2022-10-11T17:43:00.190Z,4.07
2022-10-11T17:45:27.142Z,4.47
2022-10-11T17:47:53.863Z,4.30
2022-10-11T17:50:20.538Z,4.35
2022-10-11T17:52:47.392Z,4.60
2022-10-11T17:55:18.038Z,4.90
2022-10-11T17:57:45.228Z,5.03
2022-10-11T18:02:53.550Z,4.30
2022-10-11T18:05:23.599Z,4.30
2022-10-11T18:07:53.693Z,4.93
2022-10-11T18:10:20.856Z,5.47
2022-10-11T18:12:47.536Z,5.60
2022-10-11T18:15:14.349Z,6.75
2022-10-11T18:17:41.481Z,7.35
2022-10-11T18:20:08.804Z,6.53
2022-10-11T18:22:35.571Z,8.18
2022-10-11T18:25:02.335Z,8.13
2022-10-11T18:27:29.010Z,7.55
2022-10-11T18:29:55.701Z,8.48
2022-10-11T18:32:23.455Z,9.40
2022-10-11T18:34:50.164Z,9.27
2022-10-11T18:37:29.233Z,9.93
2022-10-11T18:39:56.431Z,9.15
2022-10-11T18:42:23.251Z,9.60
2022-10-11T18:44:49.965Z,10.75
2022-10-11T18:47:17.536Z,9.35
2022-10-11T18:49:44.242Z,8.25
2022-10-11T18:52:10.992Z,6.63
2022-10-11T18:54:38.832Z,3.67
2022-10-11T18:57:05.531Z,3.17
2022-10-11T18:59:33.045Z,2.40
2022-10-11T19:01:59.732Z,2.95
2022-10-11T19:04:26.548Z,3.30
2022-10-11T19:06:53.384Z,3.13
2022-10-11T19:09:24.306Z,3.03
2022-10-11T19:11:52.999Z,3.40
2022-10-11T19:14:22.368Z,3.80
2022-10-11T19:16:51.434Z,3.35
2022-10-11T19:19:21.175Z,3.60
2022-10-11T19:21:48.776Z,2.92
2022-10-11T19:24:17.181Z,3.00
2022-10-11T19:26:43.910Z,3.17
2022-10-11T19:29:16.714Z,3.10
2022-10-11T19:31:54.866Z,3.28
2022-10-11T19:34:22.499Z,3.08
2022-10-11T19:36:53.299Z,2.97
2022-10-11T19:39:22.110Z,3.40
2022-10-11T19:41:49.069Z,3.22
2022-10-11T19:44:16.499Z,3.63
2022-10-11T19:46:51.569Z,3.50
2022-10-11T19:49:22.398Z,3.50
2022-10-11T19:51:49.250Z,8.73
2022-10-11T19:54:16.429Z,5.00
2022-10-11T19:56:44.610Z,4.47
2022-10-11T19:59:12.610Z,4.72
2022-10-11T20:01:40.323Z,8.30
2022-10-11T20:04:15.357Z,8.40
2022-10-11T20:06:49.579Z,8.48
2022-10-11T20:09:29.141Z,8.48
2022-10-11T20:14:23.476Z,6.90
2022-10-11T20:16:50.915Z,6.20
2022-10-11T20:19:17.846Z,5.15
2022-10-11T20:21:45.180Z,4.78
2022-10-11T20:24:12.114Z,4.13
2022-10-11T20:26:39.341Z,3.83
2022-10-11T20:29:06.173Z,4.10
2022-10-11T20:31:34.775Z,4.22
2022-10-11T20:34:04.230Z,4.07
2022-10-11T20:36:31.838Z,4.38
2022-10-11T20:38:59.839Z,4.15
2022-10-11T20:41:31.531Z,3.33
2022-10-11T20:44:00.194Z,3.22
2022-10-11T20:46:38.461Z,3.40
2022-10-11T20:49:08.399Z,3.20
2022-10-11T20:51:37.571Z,2.95
2022-10-11T20:54:04.837Z,3.33
2022-10-11T20:56:32.371Z,2.90
2022-10-11T20:58:59.591Z,2.88
2022-10-11T21:01:30.054Z,2.95
2022-10-11T21:06:24.430Z,2.67
2022-10-11T21:08:51.161Z,3.17
2022-10-11T21:11:17.897Z,2.63
2022-10-11T21:13:44.653Z,2.88
2022-10-11T21:16:14.647Z,3.03
2022-10-11T21:18:41.682Z,2.78
2022-10-11T21:21:10.826Z,3.47
2022-10-11T21:23:42.912Z,2.60
2022-10-11T21:26:12.851Z,2.90
2022-10-11T21:28:40.789Z,2.53
2022-10-11T21:31:14.151Z,3.00
2022-10-11T21:33:43.338Z,3.13
2022-10-11T21:36:15.990Z,2.38
2022-10-11T21:38:43.811Z,3.00
2022-10-11T21:41:13.209Z,2.80
2022-10-11T21:43:40.105Z,2.70
2022-10-11T21:46:21.811Z,2.83
2022-10-11T21:48:50.028Z,2.42
2022-10-11T21:51:30.422Z,2.80
2022-10-11T21:54:00.236Z,2.67
2022-10-11T21:56:30.181Z,2.78
2022-10-11T21:58:56.931Z,2.90
2022-10-11T22:01:24.314Z,2.75
2022-10-11T22:03:53.299Z,3.20
2022-10-11T22:06:20.289Z,3.25
2022-10-11T22:08:48.871Z,2.83
2022-10-11T22:11:15.794Z,2.75
2022-10-11T22:13:42.660Z,2.80
2022-10-11T22:16:11.924Z,3.78
2022-10-11T22:18:41.394Z,3.40
2022-10-11T22:21:14.559Z,3.40
2022-10-11T22:23:43.016Z,3.28
2022-10-11T22:26:15.271Z,3.20
2022-10-11T22:28:42.485Z,3.42
2022-10-11T22:31:15.878Z,3.20
2022-10-11T22:36:19.210Z,3.30
2022-10-11T22:38:46.555Z,3.17
2022-10-11T22:41:13.422Z,3.25
2022-10-11T22:43:42.417Z,2.90
2022-10-11T22:46:09.198Z,2.80
2022-10-11T22:48:36.152Z,2.38
2022-10-11T22:51:03.221Z,2.33
2022-10-11T22:53:30.652Z,2.70
2022-10-11T22:55:57.817Z,2.80
2022-10-11T22:58:25.716Z,2.75
2022-10-11T23:00:52.487Z,2.70
2022-10-11T23:03:19.843Z,2.90
2022-10-11T23:05:56.722Z,2.63
2022-10-11T23:08:23.561Z,3.13
2022-10-11T23:10:50.235Z,2.70
2022-10-11T23:13:17.106Z,3.17
2022-10-11T23:15:43.905Z,3.03
2022-10-11T23:18:10.713Z,3.00
2022-10-11T23:20:40.518Z,3.03
2022-10-11T23:23:07.637Z,3.15
2022-10-11T23:25:34.376Z,2.80
2022-10-11T23:28:01.500Z,2.97
2022-10-11T23:30:29.798Z,3.20
2022-10-11T23:32:56.956Z,3.92
2022-10-11T23:35:23.879Z,3.38
2022-10-11T23:37:52.316Z,3.08
2022-10-11T23:40:18.989Z,2.60
2022-10-11T23:42:45.626Z,2.72
2022-10-11T23:45:12.390Z,3.38
2022-10-11T23:47:39.652Z,2.72
2022-10-11T23:50:07.284Z,2.75
2022-10-11T23:52:33.993Z,3.42
2022-10-11T23:55:00.667Z,3.30
2022-10-11T23:57:27.445Z,3.28
2022-10-11T23:59:55.168Z,3.38
